Antonios — SY8410 — position and weather

sailwx.info

Track history (hours):
 
Tides and Currents Weather Stations Pressure Air Temp Water Temp Dewpoint Dewpoint Depression Visibility Wind Speed Wind Dir Waves Ship Positions

Antonios

Last reported at 2014-Sep-02 23:33 UTC. Time now 2014-Sep-03 00:12 UTC.
Position N 37°05' E 026°16'.

Length 57 m; draft 2.9 m.

Type: Tanker. MMSI: 239191300.

Date/timePositionNaut miles runAvg speedWind from/ knotsBaromVisibWave heightAir tempDewpointWater temp
2014-Sep-02 23:33N 37°05' E 026°16'1010.3
2014-Sep-02 22:33N 37°07' E 026°04'1010.2
2014-Sep-02 21:33N 37°09' E 025°51'1110.5
2014-Sep-02 20:33N 37°12' E 025°39'1010.1
2014-Sep-02 19:33N 37°14' E 025°26'1010.2
2014-Sep-02 18:33N 37°16' E 025°14'1010.0
2014-Sep-02 17:33N 37°18' E 025°01'10 9.7
2014-Sep-02 16:33N 37°21' E 024°50'10 9.8
2014-Sep-02 15:33N 37°25' E 024°39'1010.1
2014-Sep-02 14:33N 37°29' E 024°27'10 8.9
2014-Sep-02 13:23N 37°31' E 024°14'9 9.9
2014-Sep-02 12:27N 37°35' E 024°03'1110.7
2014-Sep-02 11:28N 37°38' E 023°51'9 9.7
2014-Sep-02 10:33N 37°43' E 023°41'9 9.0
2014-Sep-02 09:33N 37°49' E 023°33'10 9.8
2014-Sep-02 08:33N 37°52' E 023°21'13 6.4
2014-Sep-02 06:30N 37°55' E 023°05'1 0.0
2014-Sep-01 13:14N 37°55' E 023°04'0 0.0
2014-Sep-01 12:31N 37°55' E 023°04'3 3.1
2014-Sep-01 11:31N 37°53' E 023°08'1111.1
2014-Sep-01 10:33N 37°44' E 023°16'1010.3
2014-Sep-01 09:33N 37°39' E 023°27'1110.9
2014-Sep-01 08:33N 37°33' E 023°39'4310.6
2014-Sep-01 04:28N 37°07' E 024°22'1010.4
2014-Sep-01 03:30N 37°01' E 024°32'1010.7
2014-Sep-01 02:33N 36°54' E 024°41'1010.5
2014-Sep-01 01:33N 36°51' E 024°54'1010.4
2014-Sep-01 00:33N 36°50' E 025°07'1110.8
2014-Aug-31 23:33N 36°48' E 025°20'1110.5
2014-Aug-31 22:33N 36°47' E 025°33'1010.0
2014-Aug-31 21:33N 36°45' E 025°45'9 9.4
2014-Aug-31 20:33N 36°48' E 025°57'1010.2
2014-Aug-31 19:33N 36°54' E 026°07'  
2014-Aug-26 16:20N 36°55' E 027°08'7 9.0
2014-Aug-26 15:32N 36°55' E 027°17'2 1.7
2014-Aug-26 14:33N 36°54' E 027°18'17 0.4
2014-Aug-24 14:33N 36°55' E 026°57'1010.4
2014-Aug-24 13:33N 36°59' E 026°44'1010.3
2014-Aug-24 12:33N 37°01' E 026°31'1110.6
2014-Aug-24 11:32N 37°05' E 026°19'1010.4
2014-Aug-24 10:33N 37°07' E 026°06'1110.9
2014-Aug-24 09:33N 37°10' E 025°53'1110.9
2014-Aug-24 08:34N 37°12' E 025°40'1110.6
2014-Aug-24 07:33N 37°14' E 025°27'1010.3
2014-Aug-24 06:33N 37°17' E 025°14'1010.1
2014-Aug-24 05:34N 37°19' E 025°02'1010.1
2014-Aug-24 04:33N 37°21' E 024°49'1010.2
2014-Aug-24 03:33N 37°26' E 024°38'10 9.8
2014-Aug-24 02:33N 37°30' E 024°27'  
Track history (hours):
 
Tides and Currents Weather Stations Pressure Air Temp Water Temp Dewpoint Dewpoint Depression Visibility Wind Speed Wind Dir Waves Ship Positions

Antonios

Last reported at 2014-Sep-02 23:33 UTC. Time now 2014-Sep-03 00:12 UTC.
Position N 37°05' E 026°16'.

Length 57 m; draft 2.9 m.

Type: Tanker. MMSI: 239191300.

Date/timePositionNaut miles runAvg speedWind from/ knotsBaromVisibWave heightAir tempDewpointWater temp
2014-Sep-02 23:33N 37°05' E 026°16'1010.3
2014-Sep-02 22:33N 37°07' E 026°04'1010.2
2014-Sep-02 21:33N 37°09' E 025°51'1110.5
2014-Sep-02 20:33N 37°12' E 025°39'1010.1
2014-Sep-02 19:33N 37°14' E 025°26'1010.2
2014-Sep-02 18:33N 37°16' E 025°14'1010.0
2014-Sep-02 17:33N 37°18' E 025°01'10 9.7
2014-Sep-02 16:33N 37°21' E 024°50'10 9.8
2014-Sep-02 15:33N 37°25' E 024°39'1010.1
2014-Sep-02 14:33N 37°29' E 024°27'10 8.9
2014-Sep-02 13:23N 37°31' E 024°14'9 9.9
2014-Sep-02 12:27N 37°35' E 024°03'1110.7
2014-Sep-02 11:28N 37°38' E 023°51'9 9.7
2014-Sep-02 10:33N 37°43' E 023°41'9 9.0
2014-Sep-02 09:33N 37°49' E 023°33'10 9.8
2014-Sep-02 08:33N 37°52' E 023°21'13 6.4
2014-Sep-02 06:30N 37°55' E 023°05'1 0.0
2014-Sep-01 13:14N 37°55' E 023°04'0 0.0
2014-Sep-01 12:31N 37°55' E 023°04'3 3.1
2014-Sep-01 11:31N 37°53' E 023°08'1111.1
2014-Sep-01 10:33N 37°44' E 023°16'1010.3
2014-Sep-01 09:33N 37°39' E 023°27'1110.9
2014-Sep-01 08:33N 37°33' E 023°39'4310.6
2014-Sep-01 04:28N 37°07' E 024°22'1010.4
2014-Sep-01 03:30N 37°01' E 024°32'1010.7
2014-Sep-01 02:33N 36°54' E 024°41'1010.5
2014-Sep-01 01:33N 36°51' E 024°54'1010.4
2014-Sep-01 00:33N 36°50' E 025°07'1110.8
2014-Aug-31 23:33N 36°48' E 025°20'1110.5
2014-Aug-31 22:33N 36°47' E 025°33'1010.0
2014-Aug-31 21:33N 36°45' E 025°45'9 9.4
2014-Aug-31 20:33N 36°48' E 025°57'1010.2
2014-Aug-31 19:33N 36°54' E 026°07'  
2014-Aug-26 16:20N 36°55' E 027°08'7 9.0
2014-Aug-26 15:32N 36°55' E 027°17'2 1.7
2014-Aug-26 14:33N 36°54' E 027°18'17 0.4
2014-Aug-24 14:33N 36°55' E 026°57'1010.4
2014-Aug-24 13:33N 36°59' E 026°44'1010.3
2014-Aug-24 12:33N 37°01' E 026°31'1110.6
2014-Aug-24 11:32N 37°05' E 026°19'1010.4
2014-Aug-24 10:33N 37°07' E 026°06'1110.9
2014-Aug-24 09:33N 37°10' E 025°53'1110.9
2014-Aug-24 08:34N 37°12' E 025°40'1110.6
2014-Aug-24 07:33N 37°14' E 025°27'1010.3
2014-Aug-24 06:33N 37°17' E 025°14'1010.1
2014-Aug-24 05:34N 37°19' E 025°02'1010.1
2014-Aug-24 04:33N 37°21' E 024°49'1010.2
2014-Aug-24 03:33N 37°26' E 024°38'10 9.8
2014-Aug-24 02:33N 37°30' E 024°27'  

Dump ship's entire track history